Skip Navigation LinksHome page > Weather > Current weather Skip Navigation Links

Current Weather

Heathrow, London

For information only: do not use for flight planning or navigation.
Latest weather
Observation time Wednesday, July 27, 2016 1:50 PM BST
Local time Wednesday, July 27, 2016 2:22 PM BST
Flight conditions Marginal Visual Meteorological Conditions
Winds
Wind direction West-Southwest (240°)
Wind speed 12 mph
Visibility 6.2 mi.
Sky condition
Ceiling 1,700 ft. broken clouds
Cloud layer broken clouds 1,700 ft.
Cloud layer broken clouds 3,600 ft.
Temperature 72°F
Dewpoint 63°F
Altimeter 29.97 in.Hg
Derived measurements
Relative humidity 73%
Density altitude 1022 ft.
Remarks
Corrected report.
Fully automated report.
No significant changes expected in the next two hours.
METAR COR EGLL 271250Z AUTO 24010KT 9999 BKN017 BKN036 22/17 Q1015 NOSIG

Settings

Location code

InnerDrive.Weather 4.0.5722.1 Release CLR 4.0.30319.34209
Copyright ©2015 Inner Drive Technology. All rights reserved. Portions Copyright ©1986-2015 David Braverman.

Find weather

Site navigation


Skip Navigation Links

Place info

Page info

PayPal - The safer, easier way to pay online!

Return home.

Copyright ©2016 Inner Drive Technology. Purveyors of fine, hand-crafted computer software. Page printed 2016-07-27T13:22:12 UTC.